Portada
METAR-TAF:

METAR-TAF

Aeroports :

La Paz, Bolívia

latitud: 16-31S, longitud: 068-11W, altitud: 4058 m

Observació

L'informe es va fer fa 47 minuts, a les 22:00 UTC
Vent 2 kt amb direcció variable
Temperatura 13°C
Humitat 16%
Pressió 1037 hPa
Visibilitat 10 km o més

METAR: SLLP 232200Z VRB02KT 9999 NSC 13/M12 Q1037

Hora: 18:47 (22:47 UTC)

Pronòstic

L'informe es va fer fa 6 hores i 12 minuts, a les 16:35 UTC
Pronòstic vàlid del 23 a les 18 UTC al 24 a les 18 UTC
Vent 5 kt del Nord-Est
Visibilitat 10 km o més
Escasses núvols a una alçada de 2000 ft
Temporalment
l' 24 a les 07 UTC al 24 a les 11 UTC
Visibilitat: 3000 m
boira a les proximitats
Evolucionant progressivament
l' 24 a les 14 UTC al 24 a les 16 UTC
Vent 10 kt del Est/Sud-Est

TAF: SLLP 231635Z 2318/2418 26012KT 9999 FEW020 TX16/2320Z TNM05/2410ZBECMG 2323/2401 04005KT TEMPO 2407/2411 3000E VCFG BECMG 2414/2416 12010KT

Observacions i pronòstics meteorològics de més de 4000 aeroports (METAR i TAF).

Les estacions disponibles són els punts grocs i vermells al mapa.

Posi el ratolí al punt desitjat per veure el nom de l'estació.

Feu clic per veure les observacions i els pronòstics meteorològics.

Per canviar el mapa: feu clic els botons verds amb una creu de color negre per apropar; al botó verd amb un guió per allunyar la imatge; o en les fletxes verdes per a mapes adjacents.


METAR-TAF: